sensor_id;sensor_type;location;lat;lon;timestamp;P1;durP1;ratioP1;P2;durP2;ratioP2
25437;SDS011;13364;49.084;9.978;2023-04-28T00:01:40;12.90;;;8.75;;
25437;SDS011;13364;49.084;9.978;2023-04-28T00:04:07;13.65;;;8.77;;
25437;SDS011;13364;49.084;9.978;2023-04-28T00:06:35;14.75;;;8.63;;
25437;SDS011;13364;49.084;9.978;2023-04-28T00:09:02;12.55;;;7.65;;
25437;SDS011;13364;49.084;9.978;2023-04-28T00:11:29;13.65;;;8.77;;
25437;SDS011;13364;49.084;9.978;2023-04-28T00:13:56;15.10;;;8.43;;
25437;SDS011;13364;49.084;9.978;2023-04-28T00:16:23;11.40;;;8.35;;
25437;SDS011;13364;49.084;9.978;2023-04-28T00:18:50;11.45;;;8.00;;
25437;SDS011;13364;49.084;9.978;2023-04-28T00:21:18;14.18;;;8.07;;
25437;SDS011;13364;49.084;9.978;2023-04-28T00:23:45;9.85;;;7.47;;
25437;SDS011;13364;49.084;9.978;2023-04-28T00:26:12;11.10;;;8.02;;
25437;SDS011;13364;49.084;9.978;2023-04-28T00:28:41;15.18;;;8.18;;
25437;SDS011;13364;49.084;9.978;2023-04-28T00:31:09;13.18;;;8.15;;
25437;SDS011;13364;49.084;9.978;2023-04-28T00:33:38;11.10;;;7.97;;
25437;SDS011;13364;49.084;9.978;2023-04-28T00:36:06;9.13;;;7.93;;
25437;SDS011;13364;49.084;9.978;2023-04-28T00:38:33;9.55;;;7.85;;
25437;SDS011;13364;49.084;9.978;2023-04-28T00:41:01;16.80;;;8.10;;
25437;SDS011;13364;49.084;9.978;2023-04-28T00:43:28;11.45;;;8.02;;
25437;SDS011;13364;49.084;9.978;2023-04-28T00:45:55;11.52;;;7.85;;
25437;SDS011;13364;49.084;9.978;2023-04-28T00:48:22;10.40;;;7.72;;
25437;SDS011;13364;49.084;9.978;2023-04-28T00:50:49;9.98;;;7.95;;
25437;SDS011;13364;49.084;9.978;2023-04-28T00:53:17;9.00;;;7.00;;
25437;SDS011;13364;49.084;9.978;2023-04-28T00:55:45;12.48;;;8.02;;
25437;SDS011;13364;49.084;9.978;2023-04-28T00:58:13;12.27;;;7.70;;
25437;SDS011;13364;49.084;9.978;2023-04-28T01:00:40;11.63;;;7.95;;
25437;SDS011;13364;49.084;9.978;2023-04-28T01:03:08;9.63;;;7.38;;
25437;SDS011;13364;49.084;9.978;2023-04-28T01:05:35;10.85;;;7.40;;
25437;SDS011;13364;49.084;9.978;2023-04-28T01:08:03;10.93;;;7.28;;
25437;SDS011;13364;49.084;9.978;2023-04-28T01:10:30;9.77;;;7.40;;
25437;SDS011;13364;49.084;9.978;2023-04-28T01:13:04;8.40;;;7.40;;
25437;SDS011;13364;49.084;9.978;2023-04-28T01:15:32;14.68;;;7.55;;
25437;SDS011;13364;49.084;9.978;2023-04-28T01:17:59;9.30;;;7.40;;
25437;SDS011;13364;49.084;9.978;2023-04-28T01:20:27;9.68;;;5.45;;
25437;SDS011;13364;49.084;9.978;2023-04-28T01:22:54;8.75;;;5.32;;
25437;SDS011;13364;49.084;9.978;2023-04-28T01:25:21;9.68;;;6.15;;
25437;SDS011;13364;49.084;9.978;2023-04-28T01:27:49;9.25;;;6.13;;
25437;SDS011;13364;49.084;9.978;2023-04-28T01:30:16;10.18;;;5.80;;
25437;SDS011;13364;49.084;9.978;2023-04-28T01:32:43;7.78;;;6.00;;
25437;SDS011;13364;49.084;9.978;2023-04-28T01:35:10;9.23;;;6.07;;
25437;SDS011;13364;49.084;9.978;2023-04-28T01:37:37;11.55;;;6.22;;
25437;SDS011;13364;49.084;9.978;2023-04-28T01:40:04;8.15;;;5.85;;
25437;SDS011;13364;49.084;9.978;2023-04-28T01:42:31;7.95;;;6.05;;
25437;SDS011;13364;49.084;9.978;2023-04-28T01:45:00;12.07;;;6.63;;
25437;SDS011;13364;49.084;9.978;2023-04-28T01:47:28;7.97;;;6.45;;
25437;SDS011;13364;49.084;9.978;2023-04-28T01:49:55;11.65;;;6.03;;
25437;SDS011;13364;49.084;9.978;2023-04-28T01:52:22;8.93;;;6.93;;
25437;SDS011;13364;49.084;9.978;2023-04-28T01:54:50;8.75;;;6.07;;
25437;SDS011;13364;49.084;9.978;2023-04-28T01:57:17;7.53;;;6.03;;
25437;SDS011;13364;49.084;9.978;2023-04-28T01:59:47;7.68;;;5.85;;
25437;SDS011;13364;49.084;9.978;2023-04-28T02:02:14;9.73;;;6.35;;
25437;SDS011;13364;49.084;9.978;2023-04-28T02:04:42;9.65;;;6.38;;
25437;SDS011;13364;49.084;9.978;2023-04-28T02:07:09;8.55;;;6.07;;
25437;SDS011;13364;49.084;9.978;2023-04-28T02:09:36;8.43;;;5.50;;
25437;SDS011;13364;49.084;9.978;2023-04-28T02:12:03;12.05;;;6.25;;
25437;SDS011;13364;49.084;9.978;2023-04-28T02:14:30;8.45;;;5.85;;
25437;SDS011;13364;49.084;9.978;2023-04-28T02:16:57;8.65;;;6.45;;
25437;SDS011;13364;49.084;9.978;2023-04-28T02:19:25;11.95;;;5.60;;
25437;SDS011;13364;49.084;9.978;2023-04-28T02:21:52;9.88;;;5.90;;
25437;SDS011;13364;49.084;9.978;2023-04-28T02:24:19;9.05;;;6.20;;
25437;SDS011;13364;49.084;9.978;2023-04-28T02:26:46;9.98;;;6.47;;
25437;SDS011;13364;49.084;9.978;2023-04-28T02:29:13;12.75;;;5.82;;
25437;SDS011;13364;49.084;9.978;2023-04-28T02:31:40;6.95;;;5.53;;
25437;SDS011;13364;49.084;9.978;2023-04-28T02:34:07;8.27;;;5.95;;
25437;SDS011;13364;49.084;9.978;2023-04-28T02:36:34;6.68;;;5.53;;
25437;SDS011;13364;49.084;9.978;2023-04-28T02:39:01;8.65;;;6.53;;
25437;SDS011;13364;49.084;9.978;2023-04-28T02:41:28;7.60;;;5.78;;
25437;SDS011;13364;49.084;9.978;2023-04-28T02:43:56;7.82;;;6.00;;
25437;SDS011;13364;49.084;9.978;2023-04-28T02:46:23;6.15;;;5.28;;
25437;SDS011;13364;49.084;9.978;2023-04-28T02:48:50;9.40;;;5.88;;
25437;SDS011;13364;49.084;9.978;2023-04-28T02:51:17;9.88;;;5.78;;
25437;SDS011;13364;49.084;9.978;2023-04-28T02:53:44;9.10;;;5.40;;
25437;SDS011;13364;49.084;9.978;2023-04-28T02:56:12;6.22;;;4.93;;
25437;SDS011;13364;49.084;9.978;2023-04-28T02:58:39;6.90;;;5.25;;
25437;SDS011;13364;49.084;9.978;2023-04-28T03:01:06;7.05;;;5.28;;
25437;SDS011;13364;49.084;9.978;2023-04-28T03:03:33;9.25;;;5.78;;
25437;SDS011;13364;49.084;9.978;2023-04-28T03:06:00;9.43;;;6.00;;
25437;SDS011;13364;49.084;9.978;2023-04-28T03:08:27;9.98;;;6.13;;
25437;SDS011;13364;49.084;9.978;2023-04-28T03:10:54;10.23;;;6.57;;
25437;SDS011;13364;49.084;9.978;2023-04-28T03:13:22;8.70;;;6.22;;
25437;SDS011;13364;49.084;9.978;2023-04-28T03:15:49;8.18;;;6.15;;
25437;SDS011;13364;49.084;9.978;2023-04-28T03:18:16;8.75;;;6.32;;
25437;SDS011;13364;49.084;9.978;2023-04-28T03:20:44;9.88;;;6.70;;
25437;SDS011;13364;49.084;9.978;2023-04-28T03:23:11;9.20;;;6.47;;
25437;SDS011;13364;49.084;9.978;2023-04-28T03:25:38;8.27;;;6.28;;
25437;SDS011;13364;49.084;9.978;2023-04-28T03:28:05;7.35;;;6.20;;
25437;SDS011;13364;49.084;9.978;2023-04-28T03:30:32;9.18;;;6.63;;
25437;SDS011;13364;49.084;9.978;2023-04-28T03:32:59;8.02;;;5.97;;
25437;SDS011;13364;49.084;9.978;2023-04-28T03:35:26;8.07;;;5.80;;
25437;SDS011;13364;49.084;9.978;2023-04-28T03:37:54;7.32;;;5.88;;
25437;SDS011;13364;49.084;9.978;2023-04-28T03:40:21;9.18;;;6.25;;
25437;SDS011;13364;49.084;9.978;2023-04-28T03:43:11;9.60;;;6.47;;
25437;SDS011;13364;49.084;9.978;2023-04-28T03:45:53;8.65;;;6.03;;
25437;SDS011;13364;49.084;9.978;2023-04-28T03:48:20;6.60;;;5.43;;
25437;SDS011;13364;49.084;9.978;2023-04-28T03:50:47;6.90;;;5.55;;
25437;SDS011;13364;49.084;9.978;2023-04-28T03:53:14;7.82;;;5.35;;
25437;SDS011;13364;49.084;9.978;2023-04-28T03:55:43;8.35;;;5.70;;
25437;SDS011;13364;49.084;9.978;2023-04-28T03:58:10;8.38;;;5.82;;
25437;SDS011;13364;49.084;9.978;2023-04-28T04:00:37;6.85;;;5.20;;
25437;SDS011;13364;49.084;9.978;2023-04-28T04:03:05;6.32;;;4.85;;
25437;SDS011;13364;49.084;9.978;2023-04-28T04:05:32;6.65;;;5.43;;
25437;SDS011;13364;49.084;9.978;2023-04-28T04:07:59;7.95;;;5.05;;
25437;SDS011;13364;49.084;9.978;2023-04-28T04:10:27;6.90;;;5.35;;
25437;SDS011;13364;49.084;9.978;2023-04-28T04:12:54;10.45;;;5.18;;
25437;SDS011;13364;49.084;9.978;2023-04-28T04:15:21;7.30;;;5.53;;
25437;SDS011;13364;49.084;9.978;2023-04-28T04:17:49;7.00;;;5.90;;
25437;SDS011;13364;49.084;9.978;2023-04-28T04:20:16;8.52;;;6.18;;
25437;SDS011;13364;49.084;9.978;2023-04-28T04:22:44;9.05;;;6.03;;
25437;SDS011;13364;49.084;9.978;2023-04-28T04:25:13;11.00;;;5.90;;
25437;SDS011;13364;49.084;9.978;2023-04-28T04:27:45;10.45;;;5.85;;
25437;SDS011;13364;49.084;9.978;2023-04-28T04:30:12;8.55;;;5.38;;
25437;SDS011;13364;49.084;9.978;2023-04-28T04:32:39;8.00;;;4.97;;
25437;SDS011;13364;49.084;9.978;2023-04-28T04:35:07;6.57;;;5.10;;
25437;SDS011;13364;49.084;9.978;2023-04-28T04:37:34;6.78;;;5.63;;
25437;SDS011;13364;49.084;9.978;2023-04-28T04:40:01;7.15;;;5.07;;
25437;SDS011;13364;49.084;9.978;2023-04-28T04:42:34;6.53;;;5.32;;
25437;SDS011;13364;49.084;9.978;2023-04-28T04:45:04;6.32;;;5.63;;
25437;SDS011;13364;49.084;9.978;2023-04-28T04:50:50;7.28;;;5.57;;
25437;SDS011;13364;49.084;9.978;2023-04-28T04:53:17;6.93;;;5.07;;
25437;SDS011;13364;49.084;9.978;2023-04-28T04:55:44;8.43;;;6.10;;
25437;SDS011;13364;49.084;9.978;2023-04-28T04:58:13;10.57;;;6.38;;
25437;SDS011;13364;49.084;9.978;2023-04-28T05:03:11;8.32;;;5.80;;
25437;SDS011;13364;49.084;9.978;2023-04-28T05:05:39;10.43;;;6.47;;
25437;SDS011;13364;49.084;9.978;2023-04-28T05:08:11;9.80;;;6.50;;
25437;SDS011;13364;49.084;9.978;2023-04-28T05:10:39;9.23;;;6.63;;
25437;SDS011;13364;49.084;9.978;2023-04-28T05:13:07;6.97;;;5.65;;
25437;SDS011;13364;49.084;9.978;2023-04-28T05:15:34;10.07;;;7.15;;
25437;SDS011;13364;49.084;9.978;2023-04-28T05:18:18;11.65;;;6.72;;
25437;SDS011;13364;49.084;9.978;2023-04-28T05:20:45;10.80;;;6.53;;
25437;SDS011;13364;49.084;9.978;2023-04-28T05:23:14;8.38;;;6.97;;
25437;SDS011;13364;49.084;9.978;2023-04-28T05:25:42;9.68;;;6.65;;
25437;SDS011;13364;49.084;9.978;2023-04-28T05:28:09;9.50;;;7.07;;
25437;SDS011;13364;49.084;9.978;2023-04-28T05:30:36;8.02;;;6.53;;
25437;SDS011;13364;49.084;9.978;2023-04-28T05:33:03;9.93;;;6.32;;
25437;SDS011;13364;49.084;9.978;2023-04-28T05:35:30;8.80;;;6.05;;
25437;SDS011;13364;49.084;9.978;2023-04-28T05:37:57;7.25;;;5.70;;
25437;SDS011;13364;49.084;9.978;2023-04-28T05:40:25;7.05;;;5.40;;
25437;SDS011;13364;49.084;9.978;2023-04-28T05:42:53;5.85;;;5.00;;
25437;SDS011;13364;49.084;9.978;2023-04-28T05:48:13;8.63;;;5.28;;
25437;SDS011;13364;49.084;9.978;2023-04-28T05:50:42;6.90;;;4.90;;
25437;SDS011;13364;49.084;9.978;2023-04-28T05:53:09;7.65;;;5.05;;
25437;SDS011;13364;49.084;9.978;2023-04-28T05:55:37;5.82;;;4.65;;
25437;SDS011;13364;49.084;9.978;2023-04-28T05:58:04;6.53;;;4.90;;
25437;SDS011;13364;49.084;9.978;2023-04-28T06:00:31;5.63;;;4.72;;
25437;SDS011;13364;49.084;9.978;2023-04-28T06:02:59;8.32;;;5.88;;
25437;SDS011;13364;49.084;9.978;2023-04-28T06:05:27;6.72;;;6.00;;
25437;SDS011;13364;49.084;9.978;2023-04-28T06:07:55;8.32;;;5.55;;
25437;SDS011;13364;49.084;9.978;2023-04-28T06:10:24;6.05;;;5.45;;
25437;SDS011;13364;49.084;9.978;2023-04-28T06:12:51;6.50;;;5.18;;
25437;SDS011;13364;49.084;9.978;2023-04-28T06:15:18;5.60;;;5.07;;
25437;SDS011;13364;49.084;9.978;2023-04-28T06:17:46;6.40;;;5.50;;
25437;SDS011;13364;49.084;9.978;2023-04-28T06:20:14;7.70;;;5.85;;
25437;SDS011;13364;49.084;9.978;2023-04-28T06:22:42;8.15;;;5.32;;
25437;SDS011;13364;49.084;9.978;2023-04-28T06:25:10;8.30;;;5.68;;
25437;SDS011;13364;49.084;9.978;2023-04-28T06:27:42;8.32;;;6.03;;
25437;SDS011;13364;49.084;9.978;2023-04-28T06:30:12;6.90;;;5.68;;
25437;SDS011;13364;49.084;9.978;2023-04-28T06:32:44;11.73;;;6.70;;
25437;SDS011;13364;49.084;9.978;2023-04-28T06:35:12;9.75;;;6.10;;
25437;SDS011;13364;49.084;9.978;2023-04-28T06:37:40;8.13;;;6.20;;
25437;SDS011;13364;49.084;9.978;2023-04-28T06:40:08;8.80;;;5.97;;
25437;SDS011;13364;49.084;9.978;2023-04-28T06:42:40;7.13;;;6.07;;
25437;SDS011;13364;49.084;9.978;2023-04-28T06:45:16;9.27;;;5.93;;
25437;SDS011;13364;49.084;9.978;2023-04-28T06:47:43;7.68;;;5.68;;
25437;SDS011;13364;49.084;9.978;2023-04-28T06:50:10;8.70;;;5.97;;
25437;SDS011;13364;49.084;9.978;2023-04-28T06:52:38;8.70;;;5.68;;
25437;SDS011;13364;49.084;9.978;2023-04-28T06:55:08;8.80;;;6.00;;
25437;SDS011;13364;49.084;9.978;2023-04-28T06:57:35;7.22;;;5.80;;
25437;SDS011;13364;49.084;9.978;2023-04-28T07:00:04;7.25;;;5.70;;
25437;SDS011;13364;49.084;9.978;2023-04-28T07:02:31;8.27;;;5.82;;
25437;SDS011;13364;49.084;9.978;2023-04-28T07:04:58;8.55;;;5.78;;
25437;SDS011;13364;49.084;9.978;2023-04-28T07:07:25;7.30;;;5.78;;
25437;SDS011;13364;49.084;9.978;2023-04-28T07:09:52;10.02;;;6.05;;
25437;SDS011;13364;49.084;9.978;2023-04-28T07:12:20;8.32;;;6.53;;
25437;SDS011;13364;49.084;9.978;2023-04-28T07:14:47;9.68;;;6.97;;
25437;SDS011;13364;49.084;9.978;2023-04-28T07:17:16;8.65;;;6.38;;
25437;SDS011;13364;49.084;9.978;2023-04-28T07:19:43;9.20;;;6.43;;
25437;SDS011;13364;49.084;9.978;2023-04-28T07:22:10;12.07;;;6.30;;
25437;SDS011;13364;49.084;9.978;2023-04-28T07:24:37;9.73;;;7.18;;
25437;SDS011;13364;49.084;9.978;2023-04-28T07:27:04;9.38;;;6.85;;
25437;SDS011;13364;49.084;9.978;2023-04-28T07:29:31;9.88;;;7.13;;
25437;SDS011;13364;49.084;9.978;2023-04-28T07:32:00;10.00;;;6.93;;
25437;SDS011;13364;49.084;9.978;2023-04-28T07:34:33;10.07;;;7.03;;
25437;SDS011;13364;49.084;9.978;2023-04-28T07:37:01;11.27;;;7.88;;
25437;SDS011;13364;49.084;9.978;2023-04-28T07:39:32;9.48;;;7.28;;
25437;SDS011;13364;49.084;9.978;2023-04-28T07:42:01;11.82;;;6.70;;
25437;SDS011;13364;49.084;9.978;2023-04-28T07:44:29;11.65;;;7.65;;
25437;SDS011;13364;49.084;9.978;2023-04-28T07:46:57;9.05;;;7.25;;
25437;SDS011;13364;49.084;9.978;2023-04-28T07:49:26;11.15;;;7.65;;
25437;SDS011;13364;49.084;9.978;2023-04-28T07:51:54;12.15;;;7.85;;
25437;SDS011;13364;49.084;9.978;2023-04-28T07:54:21;9.60;;;7.50;;
25437;SDS011;13364;49.084;9.978;2023-04-28T07:56:49;12.63;;;8.88;;
25437;SDS011;13364;49.084;9.978;2023-04-28T07:59:16;11.30;;;8.93;;
25437;SDS011;13364;49.084;9.978;2023-04-28T08:01:43;13.27;;;8.55;;
25437;SDS011;13364;49.084;9.978;2023-04-28T08:04:10;13.52;;;8.63;;
25437;SDS011;13364;49.084;9.978;2023-04-28T08:06:38;10.52;;;7.82;;
25437;SDS011;13364;49.084;9.978;2023-04-28T08:09:05;12.02;;;8.43;;
25437;SDS011;13364;49.084;9.978;2023-04-28T08:11:33;13.35;;;8.00;;
25437;SDS011;13364;49.084;9.978;2023-04-28T08:14:00;12.32;;;9.18;;
25437;SDS011;13364;49.084;9.978;2023-04-28T08:16:29;12.68;;;8.25;;
25437;SDS011;13364;49.084;9.978;2023-04-28T08:18:57;12.85;;;8.77;;
25437;SDS011;13364;49.084;9.978;2023-04-28T08:21:25;11.47;;;6.53;;
25437;SDS011;13364;49.084;9.978;2023-04-28T08:23:53;11.77;;;8.95;;
25437;SDS011;13364;49.084;9.978;2023-04-28T08:26:20;12.95;;;8.77;;
25437;SDS011;13364;49.084;9.978;2023-04-28T08:28:47;10.93;;;9.00;;
25437;SDS011;13364;49.084;9.978;2023-04-28T08:31:14;11.00;;;8.93;;
25437;SDS011;13364;49.084;9.978;2023-04-28T08:33:41;11.60;;;8.73;;
25437;SDS011;13364;49.084;9.978;2023-04-28T08:36:13;11.32;;;8.32;;
25437;SDS011;13364;49.084;9.978;2023-04-28T08:38:41;13.68;;;9.57;;
25437;SDS011;13364;49.084;9.978;2023-04-28T08:41:09;14.52;;;10.18;;
25437;SDS011;13364;49.084;9.978;2023-04-28T08:46:45;14.20;;;10.10;;
25437;SDS011;13364;49.084;9.978;2023-04-28T08:49:16;11.90;;;9.07;;
25437;SDS011;13364;49.084;9.978;2023-04-28T08:51:51;13.70;;;9.93;;
25437;SDS011;13364;49.084;9.978;2023-04-28T08:54:32;14.02;;;9.32;;
25437;SDS011;13364;49.084;9.978;2023-04-28T08:57:03;15.55;;;10.15;;
25437;SDS011;13364;49.084;9.978;2023-04-28T08:59:30;14.70;;;10.65;;
25437;SDS011;13364;49.084;9.978;2023-04-28T09:01:58;15.23;;;10.32;;
25437;SDS011;13364;49.084;9.978;2023-04-28T09:04:25;14.65;;;10.43;;
25437;SDS011;13364;49.084;9.978;2023-04-28T09:06:53;12.45;;;9.85;;
25437;SDS011;13364;49.084;9.978;2023-04-28T09:11:51;17.55;;;11.52;;
25437;SDS011;13364;49.084;9.978;2023-04-28T09:14:19;14.07;;;10.30;;
25437;SDS011;13364;49.084;9.978;2023-04-28T09:16:46;13.30;;;10.00;;
25437;SDS011;13364;49.084;9.978;2023-04-28T09:19:14;14.32;;;9.73;;
25437;SDS011;13364;49.084;9.978;2023-04-28T09:21:49;11.27;;;9.20;;
25437;SDS011;13364;49.084;9.978;2023-04-28T09:24:39;10.63;;;8.27;;
25437;SDS011;13364;49.084;9.978;2023-04-28T09:27:08;11.50;;;8.70;;
25437;SDS011;13364;49.084;9.978;2023-04-28T09:29:37;13.73;;;9.13;;
25437;SDS011;13364;49.084;9.978;2023-04-28T09:32:11;11.52;;;9.05;;
25437;SDS011;13364;49.084;9.978;2023-04-28T09:34:46;11.02;;;8.48;;
25437;SDS011;13364;49.084;9.978;2023-04-28T09:37:15;12.35;;;9.18;;
25437;SDS011;13364;49.084;9.978;2023-04-28T09:39:43;13.25;;;9.48;;
25437;SDS011;13364;49.084;9.978;2023-04-28T09:42:29;10.98;;;9.38;;
25437;SDS011;13364;49.084;9.978;2023-04-28T09:45:00;10.68;;;8.20;;
25437;SDS011;13364;49.084;9.978;2023-04-28T09:47:29;11.15;;;9.07;;
25437;SDS011;13364;49.084;9.978;2023-04-28T09:50:01;11.73;;;8.13;;
25437;SDS011;13364;49.084;9.978;2023-04-28T09:52:32;9.85;;;7.30;;
25437;SDS011;13364;49.084;9.978;2023-04-28T09:55:00;9.93;;;7.45;;
25437;SDS011;13364;49.084;9.978;2023-04-28T09:57:32;8.10;;;7.20;;
25437;SDS011;13364;49.084;9.978;2023-04-28T10:00:01;9.43;;;7.45;;
25437;SDS011;13364;49.084;9.978;2023-04-28T10:02:35;10.20;;;7.57;;
25437;SDS011;13364;49.084;9.978;2023-04-28T10:05:06;9.18;;;6.32;;
25437;SDS011;13364;49.084;9.978;2023-04-28T10:07:39;8.98;;;7.00;;
25437;SDS011;13364;49.084;9.978;2023-04-28T10:10:07;7.32;;;6.50;;
25437;SDS011;13364;49.084;9.978;2023-04-28T10:12:35;8.15;;;5.80;;
25437;SDS011;13364;49.084;9.978;2023-04-28T10:15:04;7.77;;;6.97;;
25437;SDS011;13364;49.084;9.978;2023-04-28T10:17:33;7.38;;;6.60;;
25437;SDS011;13364;49.084;9.978;2023-04-28T10:20:02;7.80;;;5.63;;
25437;SDS011;13364;49.084;9.978;2023-04-28T10:22:38;8.30;;;6.47;;
25437;SDS011;13364;49.084;9.978;2023-04-28T10:25:35;8.38;;;6.35;;
25437;SDS011;13364;49.084;9.978;2023-04-28T10:28:04;6.47;;;5.78;;
25437;SDS011;13364;49.084;9.978;2023-04-28T10:30:33;6.25;;;5.63;;
25437;SDS011;13364;49.084;9.978;2023-04-28T10:38:06;6.88;;;4.70;;
25437;SDS011;13364;49.084;9.978;2023-04-28T10:40:42;4.25;;;3.85;;
25437;SDS011;13364;49.084;9.978;2023-04-28T10:43:53;4.30;;;3.90;;
25437;SDS011;13364;49.084;9.978;2023-04-28T10:46:05;3.92;;;3.63;;
25437;SDS011;13364;49.084;9.978;2023-04-28T10:56:17;4.20;;;3.80;;
25437;SDS011;13364;49.084;9.978;2023-04-28T10:59:02;3.50;;;3.20;;
25437;SDS011;13364;49.084;9.978;2023-04-28T11:01:58;4.22;;;3.83;;
25437;SDS011;13364;49.084;9.978;2023-04-28T11:05:14;3.63;;;3.20;;
25437;SDS011;13364;49.084;9.978;2023-04-28T11:13:40;2.72;;;2.53;;
25437;SDS011;13364;49.084;9.978;2023-04-28T11:16:08;3.50;;;2.40;;
25437;SDS011;13364;49.084;9.978;2023-04-28T11:21:21;2.78;;;2.58;;
25437;SDS011;13364;49.084;9.978;2023-04-28T11:23:49;2.30;;;2.10;;
25437;SDS011;13364;49.084;9.978;2023-04-28T11:26:20;2.78;;;1.98;;
25437;SDS011;13364;49.084;9.978;2023-04-28T11:28:50;2.80;;;2.20;;
25437;SDS011;13364;49.084;9.978;2023-04-28T11:31:19;1.70;;;1.58;;
25437;SDS011;13364;49.084;9.978;2023-04-28T11:33:57;2.60;;;1.90;;
25437;SDS011;13364;49.084;9.978;2023-04-28T11:38:58;1.98;;;1.88;;
25437;SDS011;13364;49.084;9.978;2023-04-28T11:41:25;2.15;;;1.98;;
25437;SDS011;13364;49.084;9.978;2023-04-28T11:43:53;2.88;;;2.15;;
25437;SDS011;13364;49.084;9.978;2023-04-28T11:46:21;2.55;;;2.35;;
25437;SDS011;13364;49.084;9.978;2023-04-28T11:56:03;3.88;;;3.05;;
25437;SDS011;13364;49.084;9.978;2023-04-28T11:58:33;3.63;;;3.33;;
25437;SDS011;13364;49.084;9.978;2023-04-28T12:03:43;4.43;;;3.72;;
25437;SDS011;13364;49.084;9.978;2023-04-28T12:06:15;3.78;;;3.47;;
25437;SDS011;13364;49.084;9.978;2023-04-28T12:08:50;3.78;;;3.30;;
25437;SDS011;13364;49.084;9.978;2023-04-28T12:11:18;3.92;;;3.55;;
25437;SDS011;13364;49.084;9.978;2023-04-28T12:16:38;3.50;;;3.20;;
25437;SDS011;13364;49.084;9.978;2023-04-28T12:19:10;6.93;;;3.60;;
25437;SDS011;13364;49.084;9.978;2023-04-28T12:21:38;3.47;;;3.08;;
25437;SDS011;13364;49.084;9.978;2023-04-28T12:24:29;3.22;;;2.88;;
25437;SDS011;13364;49.084;9.978;2023-04-28T12:26:53;2.70;;;2.50;;
25437;SDS011;13364;49.084;9.978;2023-04-28T12:32:04;2.78;;;2.10;;
25437;SDS011;13364;49.084;9.978;2023-04-28T12:34:32;2.67;;;2.30;;
25437;SDS011;13364;49.084;9.978;2023-04-28T12:37:00;2.20;;;2.00;;
25437;SDS011;13364;49.084;9.978;2023-04-28T12:39:49;3.95;;;2.47;;
25437;SDS011;13364;49.084;9.978;2023-04-28T12:42:16;4.05;;;2.10;;
25437;SDS011;13364;49.084;9.978;2023-04-28T12:44:43;2.70;;;2.50;;
25437;SDS011;13364;49.084;9.978;2023-04-28T12:47:11;2.55;;;2.00;;
25437;SDS011;13364;49.084;9.978;2023-04-28T12:49:38;4.57;;;2.50;;
25437;SDS011;13364;49.084;9.978;2023-04-28T12:52:05;3.03;;;1.98;;
25437;SDS011;13364;49.084;9.978;2023-04-28T12:54:33;1.80;;;1.70;;
25437;SDS011;13364;49.084;9.978;2023-04-28T12:57:00;2.10;;;1.88;;
25437;SDS011;13364;49.084;9.978;2023-04-28T12:59:28;4.00;;;1.95;;
25437;SDS011;13364;49.084;9.978;2023-04-28T13:01:56;2.20;;;2.00;;
25437;SDS011;13364;49.084;9.978;2023-04-28T13:04:24;3.33;;;1.90;;
25437;SDS011;13364;49.084;9.978;2023-04-28T13:06:53;1.52;;;1.42;;
25437;SDS011;13364;49.084;9.978;2023-04-28T13:09:20;1.83;;;1.65;;
25437;SDS011;13364;49.084;9.978;2023-04-28T13:11:47;2.65;;;1.35;;
25437;SDS011;13364;49.084;9.978;2023-04-28T13:14:14;3.13;;;1.60;;
25437;SDS011;13364;49.084;9.978;2023-04-28T13:16:41;1.83;;;1.60;;
25437;SDS011;13364;49.084;9.978;2023-04-28T13:19:08;2.15;;;1.48;;
25437;SDS011;13364;49.084;9.978;2023-04-28T13:21:39;2.58;;;1.70;;
25437;SDS011;13364;49.084;9.978;2023-04-28T13:24:08;2.77;;;1.73;;
25437;SDS011;13364;49.084;9.978;2023-04-28T13:26:36;1.77;;;1.67;;
25437;SDS011;13364;49.084;9.978;2023-04-28T13:29:03;2.28;;;1.77;;
25437;SDS011;13364;49.084;9.978;2023-04-28T13:31:31;1.75;;;1.50;;
25437;SDS011;13364;49.084;9.978;2023-04-28T13:33:58;1.95;;;1.55;;
25437;SDS011;13364;49.084;9.978;2023-04-28T13:36:27;2.20;;;1.58;;
25437;SDS011;13364;49.084;9.978;2023-04-28T13:38:55;1.92;;;1.50;;
25437;SDS011;13364;49.084;9.978;2023-04-28T13:41:22;2.30;;;1.55;;
25437;SDS011;13364;49.084;9.978;2023-04-28T13:43:49;2.85;;;1.60;;
25437;SDS011;13364;49.084;9.978;2023-04-28T13:46:17;6.57;;;1.73;;
25437;SDS011;13364;49.084;9.978;2023-04-28T13:48:44;2.03;;;1.60;;
25437;SDS011;13364;49.084;9.978;2023-04-28T13:51:11;2.80;;;1.88;;
25437;SDS011;13364;49.084;9.978;2023-04-28T13:53:38;2.42;;;1.42;;
25437;SDS011;13364;49.084;9.978;2023-04-28T13:56:05;3.20;;;1.63;;
25437;SDS011;13364;49.084;9.978;2023-04-28T13:58:33;2.97;;;1.50;;
25437;SDS011;13364;49.084;9.978;2023-04-28T14:01:02;3.25;;;1.33;;
25437;SDS011;13364;49.084;9.978;2023-04-28T14:03:30;1.20;;;1.10;;
25437;SDS011;13364;49.084;9.978;2023-04-28T14:05:57;3.83;;;1.17;;
25437;SDS011;13364;49.084;9.978;2023-04-28T14:08:24;2.97;;;0.90;;
25437;SDS011;13364;49.084;9.978;2023-04-28T14:10:53;4.82;;;0.82;;
25437;SDS011;13364;49.084;9.978;2023-04-28T14:13:20;1.27;;;0.77;;
25437;SDS011;13364;49.084;9.978;2023-04-28T14:19:06;2.30;;;1.00;;
25437;SDS011;13364;49.084;9.978;2023-04-28T14:21:33;0.95;;;0.85;;
25437;SDS011;13364;49.084;9.978;2023-04-28T14:24:00;1.20;;;1.02;;
25437;SDS011;13364;49.084;9.978;2023-04-28T14:26:27;2.58;;;0.90;;
25437;SDS011;13364;49.084;9.978;2023-04-28T14:28:55;1.38;;;0.93;;
25437;SDS011;13364;49.084;9.978;2023-04-28T14:31:22;2.22;;;1.15;;
25437;SDS011;13364;49.084;9.978;2023-04-28T14:33:49;2.92;;;1.08;;
25437;SDS011;13364;49.084;9.978;2023-04-28T14:36:16;4.55;;;3.47;;
25437;SDS011;13364;49.084;9.978;2023-04-28T14:38:43;4.63;;;3.22;;
25437;SDS011;13364;49.084;9.978;2023-04-28T14:41:10;4.22;;;1.70;;
25437;SDS011;13364;49.084;9.978;2023-04-28T14:43:37;1.60;;;1.08;;
25437;SDS011;13364;49.084;9.978;2023-04-28T14:46:04;2.20;;;1.30;;
25437;SDS011;13364;49.084;9.978;2023-04-28T14:48:31;4.55;;;2.28;;
25437;SDS011;13364;49.084;9.978;2023-04-28T14:50:59;2.17;;;1.55;;
25437;SDS011;13364;49.084;9.978;2023-04-28T14:53:26;2.70;;;1.80;;
25437;SDS011;13364;49.084;9.978;2023-04-28T14:55:53;2.53;;;1.45;;
25437;SDS011;13364;49.084;9.978;2023-04-28T14:58:32;3.85;;;1.80;;
25437;SDS011;13364;49.084;9.978;2023-04-28T15:00:59;1.33;;;1.23;;
25437;SDS011;13364;49.084;9.978;2023-04-28T15:03:28;3.53;;;1.20;;
25437;SDS011;13364;49.084;9.978;2023-04-28T15:05:56;1.33;;;1.05;;
25437;SDS011;13364;49.084;9.978;2023-04-28T15:08:23;1.92;;;1.40;;
25437;SDS011;13364;49.084;9.978;2023-04-28T15:10:50;3.10;;;0.98;;
25437;SDS011;13364;49.084;9.978;2023-04-28T15:13:17;1.00;;;0.90;;
25437;SDS011;13364;49.084;9.978;2023-04-28T15:15:44;1.60;;;0.90;;
25437;SDS011;13364;49.084;9.978;2023-04-28T15:18:11;3.97;;;0.98;;
25437;SDS011;13364;49.084;9.978;2023-04-28T15:20:38;2.38;;;0.93;;
25437;SDS011;13364;49.084;9.978;2023-04-28T15:23:05;1.65;;;0.95;;
25437;SDS011;13364;49.084;9.978;2023-04-28T15:25:32;1.15;;;1.02;;
25437;SDS011;13364;49.084;9.978;2023-04-28T15:27:59;1.83;;;1.30;;
25437;SDS011;13364;49.084;9.978;2023-04-28T15:30:29;2.40;;;1.10;;
25437;SDS011;13364;49.084;9.978;2023-04-28T15:32:56;2.38;;;1.30;;
25437;SDS011;13364;49.084;9.978;2023-04-28T15:35:23;1.90;;;1.20;;
25437;SDS011;13364;49.084;9.978;2023-04-28T15:37:51;1.50;;;1.40;;
25437;SDS011;13364;49.084;9.978;2023-04-28T15:40:18;1.50;;;1.40;;
25437;SDS011;13364;49.084;9.978;2023-04-28T15:42:46;1.75;;;1.27;;
25437;SDS011;13364;49.084;9.978;2023-04-28T15:45:14;3.30;;;1.45;;
25437;SDS011;13364;49.084;9.978;2023-04-28T15:47:42;5.35;;;2.08;;
25437;SDS011;13364;49.084;9.978;2023-04-28T15:50:10;2.25;;;1.63;;